createdAt,value
2018-09-21T00:01:12.492Z,7.40
2018-09-21T00:03:50.907Z,8.77
2018-09-21T00:06:25.346Z,8.77
2018-09-21T00:08:54.797Z,10.57
2018-09-21T00:11:23.703Z,12.37
2018-09-21T00:13:53.016Z,9.57
2018-09-21T00:16:22.426Z,7.93
2018-09-21T00:18:51.763Z,9.00
2018-09-21T00:21:21.166Z,9.20
2018-09-21T00:23:50.019Z,9.90
2018-09-21T00:26:19.298Z,9.67
2018-09-21T00:28:48.271Z,9.80
2018-09-21T00:31:17.349Z,8.83
2018-09-21T00:33:46.443Z,9.87
2018-09-21T00:36:15.700Z,9.23
2018-09-21T00:38:45.069Z,8.87
2018-09-21T00:41:14.231Z,9.30
2018-09-21T00:43:43.179Z,9.70
2018-09-21T00:46:12.647Z,9.30
2018-09-21T00:48:41.841Z,9.70
2018-09-21T00:51:11.081Z,9.80
2018-09-21T00:53:40.240Z,8.90
2018-09-21T00:56:09.367Z,10.10
2018-09-21T00:58:38.423Z,8.80
2018-09-21T01:01:07.749Z,9.80
2018-09-21T01:03:36.782Z,9.00
2018-09-21T01:06:05.729Z,9.50
2018-09-21T01:08:34.811Z,9.60
2018-09-21T01:11:03.848Z,8.67
2018-09-21T01:13:44.069Z,9.55
2018-09-21T01:16:18.260Z,10.32
2018-09-21T01:18:53.031Z,9.23
2018-09-21T01:21:29.764Z,9.03
2018-09-21T01:24:04.548Z,10.73
2018-09-21T01:26:39.770Z,9.18
2018-09-21T01:29:17.742Z,9.95
2018-09-21T01:31:53.493Z,9.00
2018-09-21T01:34:27.455Z,9.68
2018-09-21T01:37:01.803Z,8.93
2018-09-21T01:39:38.377Z,9.60
2018-09-21T01:42:14.200Z,9.47
2018-09-21T01:44:47.949Z,8.95
2018-09-21T01:47:27.297Z,10.43
2018-09-21T01:50:00.703Z,9.63
2018-09-21T01:52:37.063Z,9.68
2018-09-21T01:55:10.384Z,9.50
2018-09-21T01:57:43.464Z,9.70
2018-09-21T02:00:18.079Z,11.70
2018-09-21T02:02:51.739Z,10.85
2018-09-21T02:05:26.135Z,10.48
2018-09-21T02:08:01.418Z,11.33
2018-09-21T02:10:36.279Z,10.48
2018-09-21T02:13:10.531Z,10.93
2018-09-21T02:15:45.434Z,10.78
2018-09-21T02:18:23.839Z,10.50
2018-09-21T02:20:57.392Z,12.50
2018-09-21T02:23:33.036Z,10.60
2018-09-21T02:26:08.776Z,10.63
2018-09-21T02:28:42.754Z,11.95
2018-09-21T02:31:20.479Z,10.75
2018-09-21T02:33:54.914Z,11.57
2018-09-21T02:36:30.620Z,10.93
2018-09-21T02:39:05.812Z,11.17
2018-09-21T02:41:40.806Z,12.98
2018-09-21T02:44:24.771Z,10.37
2018-09-21T02:47:06.653Z,10.50
2018-09-21T02:49:40.993Z,10.15
2018-09-21T02:52:16.580Z,10.98
2018-09-21T02:54:50.413Z,11.12
2018-09-21T02:57:26.481Z,10.40
2018-09-21T03:00:01.383Z,11.03
2018-09-21T03:02:35.949Z,10.48
2018-09-21T03:05:09.804Z,9.75
2018-09-21T03:07:43.431Z,10.85
2018-09-21T03:10:18.292Z,11.37
2018-09-21T03:13:02.488Z,10.50
2018-09-21T03:15:46.362Z,10.50
2018-09-21T03:18:21.172Z,11.10
2018-09-21T03:20:56.077Z,11.15
2018-09-21T03:23:33.329Z,13.35
2018-09-21T03:26:08.761Z,12.47
2018-09-21T03:28:42.034Z,12.50
2018-09-21T03:31:16.786Z,11.90
2018-09-21T03:33:51.441Z,13.05
2018-09-21T03:36:25.688Z,11.65
2018-09-21T03:38:59.256Z,12.68
2018-09-21T03:41:33.971Z,12.28
2018-09-21T03:44:09.143Z,12.03
2018-09-21T03:46:42.902Z,13.10
2018-09-21T03:49:15.974Z,11.68
2018-09-21T03:51:49.579Z,13.10
2018-09-21T03:54:22.573Z,11.40
2018-09-21T03:56:56.201Z,11.55
2018-09-21T03:59:29.410Z,11.85
2018-09-21T04:02:03.709Z,12.10
2018-09-21T04:04:43.768Z,11.25
2018-09-21T04:07:17.855Z,12.15
2018-09-21T04:09:51.479Z,10.98
2018-09-21T04:12:25.151Z,12.03
2018-09-21T04:15:00.169Z,12.00
2018-09-21T04:17:33.048Z,11.30
2018-09-21T04:20:07.270Z,12.07
2018-09-21T04:22:40.656Z,9.75
2018-09-21T04:25:17.752Z,12.35
2018-09-21T04:27:50.872Z,11.43
2018-09-21T04:30:24.508Z,12.03
2018-09-21T04:33:02.063Z,11.45
2018-09-21T04:35:34.994Z,11.33
2018-09-21T04:38:09.261Z,11.80
2018-09-21T04:40:43.049Z,13.10
2018-09-21T04:43:17.045Z,12.60
2018-09-21T04:45:50.519Z,12.50
2018-09-21T04:48:24.878Z,12.10
2018-09-21T04:50:58.920Z,14.18
2018-09-21T04:53:32.518Z,12.37
2018-09-21T04:56:07.024Z,12.37
2018-09-21T04:58:40.488Z,12.78
2018-09-21T05:01:14.962Z,13.32
2018-09-21T05:03:49.116Z,12.88
2018-09-21T05:06:23.004Z,12.95
2018-09-21T05:08:56.242Z,13.40
2018-09-21T05:11:29.313Z,13.18
2018-09-21T05:14:02.421Z,13.93
2018-09-21T05:16:36.529Z,13.38
2018-09-21T05:19:09.527Z,13.10
2018-09-21T05:21:42.462Z,12.58
2018-09-21T05:24:15.313Z,13.80
2018-09-21T05:26:48.585Z,13.62
2018-09-21T05:29:21.434Z,13.35
2018-09-21T05:31:55.861Z,15.03
2018-09-21T05:34:29.068Z,13.28
2018-09-21T05:37:03.595Z,13.90
2018-09-21T05:39:37.574Z,14.85
2018-09-21T05:42:10.858Z,13.83
2018-09-21T05:44:45.143Z,13.83
2018-09-21T05:47:19.314Z,13.90
2018-09-21T05:49:53.492Z,15.13
2018-09-21T05:52:25.804Z,14.53
2018-09-21T05:54:56.849Z,15.48
2018-09-21T05:57:30.511Z,14.30
2018-09-21T06:00:04.376Z,14.10
2018-09-21T06:02:36.109Z,14.18
2018-09-21T06:05:11.239Z,14.40
2018-09-21T06:07:43.095Z,14.40
2018-09-21T06:10:15.584Z,14.03
2018-09-21T06:12:50.304Z,13.45
2018-09-21T06:15:22.503Z,13.58
2018-09-21T06:17:54.850Z,11.27
2018-09-21T06:20:28.001Z,11.87
2018-09-21T06:23:01.447Z,11.37
2018-09-21T06:25:33.142Z,10.20
2018-09-21T06:28:06.184Z,10.70
2018-09-21T06:30:37.292Z,11.00
2018-09-21T06:33:10.533Z,10.50
2018-09-21T06:35:44.018Z,10.97
2018-09-21T06:38:14.516Z,9.10
2018-09-21T06:40:47.299Z,11.13
2018-09-21T06:43:20.116Z,10.30
2018-09-21T06:45:52.991Z,9.93
2018-09-21T06:48:27.344Z,11.10
2018-09-21T06:51:00.685Z,10.20
2018-09-21T06:53:31.194Z,10.67
2018-09-21T06:56:07.411Z,10.20
2018-09-21T06:58:38.421Z,10.23
2018-09-21T07:01:18.021Z,11.00
2018-09-21T07:03:50.037Z,9.20
2018-09-21T07:06:28.524Z,10.00
2018-09-21T07:09:00.527Z,9.57
2018-09-21T07:11:32.608Z,9.07
2018-09-21T07:14:04.117Z,10.20
2018-09-21T07:16:34.752Z,9.50
2018-09-21T07:19:06.557Z,9.60
2018-09-21T07:21:40.682Z,10.67
2018-09-21T07:24:12.682Z,8.53
2018-09-21T07:26:44.460Z,8.60
2018-09-21T07:29:15.625Z,8.70
2018-09-21T07:31:46.893Z,8.50
2018-09-21T07:34:17.924Z,9.10
2018-09-21T07:36:51.116Z,8.73
2018-09-21T07:39:22.345Z,7.70
2018-09-21T07:41:54.264Z,9.20
2018-09-21T07:44:31.083Z,9.20
2018-09-21T07:47:02.962Z,9.60
2018-09-21T07:49:37.405Z,9.00
2018-09-21T07:52:09.703Z,9.50
2018-09-21T07:54:42.821Z,8.80
2018-09-21T07:57:14.158Z,8.83
2018-09-21T07:59:45.449Z,8.23
2018-09-21T08:02:16.277Z,8.13
2018-09-21T08:04:47.691Z,7.70
2018-09-21T08:07:31.858Z,9.00
2018-09-21T08:10:02.454Z,9.40
2018-09-21T08:12:33.253Z,9.10
2018-09-21T08:15:04.399Z,8.50
2018-09-21T08:17:34.889Z,9.50
2018-09-21T08:20:08.533Z,7.97
2018-09-21T08:22:43.960Z,7.70
2018-09-21T08:25:15.566Z,8.30
2018-09-21T08:27:48.664Z,8.10
2018-09-21T08:30:20.686Z,7.70
2018-09-21T08:32:51.874Z,8.00
2018-09-21T08:35:23.623Z,9.17
2018-09-21T08:37:54.018Z,7.50
2018-09-21T08:40:25.834Z,8.23
2018-09-21T08:42:59.033Z,8.03
2018-09-21T08:45:31.373Z,7.80
2018-09-21T08:48:03.741Z,8.20
2018-09-21T08:50:34.828Z,8.70
2018-09-21T08:53:05.520Z,7.80
2018-09-21T08:55:37.370Z,7.30
2018-09-21T08:58:08.340Z,8.10
2018-09-21T09:00:40.014Z,8.00
2018-09-21T09:03:11.227Z,8.23
2018-09-21T09:05:43.040Z,7.20
2018-09-21T09:08:13.769Z,7.60
2018-09-21T09:10:44.089Z,7.10
2018-09-21T09:13:14.598Z,6.90
2018-09-21T09:15:46.979Z,7.03
2018-09-21T09:18:22.982Z,5.93
2018-09-21T09:20:54.964Z,6.60
2018-09-21T09:23:25.095Z,6.70
2018-09-21T09:25:55.132Z,6.27
2018-09-21T09:28:25.594Z,7.03
2018-09-21T09:30:57.089Z,7.40
2018-09-21T09:33:29.475Z,7.63
2018-09-21T09:36:00.017Z,6.97
2018-09-21T09:38:30.471Z,6.47
2018-09-21T09:41:01.878Z,6.67
2018-09-21T09:43:32.840Z,6.70
2018-09-21T09:46:03.249Z,6.73
2018-09-21T09:48:33.737Z,6.60
2018-09-21T09:51:06.249Z,6.70
2018-09-21T09:53:36.681Z,6.77
2018-09-21T09:56:07.116Z,6.87
2018-09-21T09:58:38.325Z,6.03
2018-09-21T10:01:09.366Z,7.00
2018-09-21T10:03:41.658Z,7.07
2018-09-21T10:06:12.169Z,7.83
2018-09-21T10:08:43.551Z,6.63
2018-09-21T10:11:14.939Z,7.40
2018-09-21T10:13:46.428Z,7.10
2018-09-21T10:16:16.456Z,8.17
2018-09-21T10:18:48.626Z,7.47
2018-09-21T10:21:19.031Z,6.10
2018-09-21T10:23:50.008Z,7.07
2018-09-21T10:26:24.452Z,6.93
2018-09-21T10:29:26.342Z,8.07
2018-09-21T10:31:59.587Z,7.50
2018-09-21T10:34:31.349Z,7.53
2018-09-21T10:37:02.916Z,7.60
2018-09-21T10:39:33.619Z,8.07
2018-09-21T10:42:06.165Z,7.23
2018-09-21T10:44:38.403Z,7.37
2018-09-21T10:47:19.313Z,6.50
2018-09-21T10:50:08.018Z,9.20
2018-09-21T10:52:40.255Z,8.50
2018-09-21T10:55:11.351Z,7.10
2018-09-21T10:57:43.485Z,7.90
2018-09-21T11:00:15.765Z,7.43
2018-09-21T11:02:48.551Z,7.50
2018-09-21T11:05:19.919Z,7.60
2018-09-21T11:07:52.989Z,8.10
2018-09-21T11:10:26.923Z,7.83
2018-09-21T11:12:59.131Z,8.30
2018-09-21T11:15:31.031Z,7.90
2018-09-21T11:18:03.119Z,7.07
2018-09-21T11:20:35.889Z,7.67
2018-09-21T11:23:08.707Z,7.73
2018-09-21T11:25:40.053Z,7.27
2018-09-21T11:28:11.036Z,9.00
2018-09-21T11:30:44.060Z,7.57
2018-09-21T11:33:16.045Z,9.07
2018-09-21T11:35:45.286Z,8.00
2018-09-21T11:38:14.530Z,8.17
2018-09-21T11:40:43.913Z,8.40
2018-09-21T11:43:14.064Z,7.73
2018-09-21T11:45:43.512Z,7.53
2018-09-21T11:48:12.557Z,8.20
2018-09-21T11:50:41.687Z,7.50
2018-09-21T11:53:10.609Z,7.83
2018-09-21T11:55:39.377Z,7.20
2018-09-21T11:58:08.977Z,8.37
2018-09-21T12:00:37.946Z,8.23
2018-09-21T12:03:07.017Z,7.80
2018-09-21T12:05:36.311Z,7.73
2018-09-21T12:08:05.731Z,7.70
2018-09-21T12:10:34.775Z,7.60
2018-09-21T12:13:04.077Z,7.93
2018-09-21T12:15:33.100Z,7.70
2018-09-21T12:18:02.268Z,7.40
2018-09-21T12:20:31.132Z,7.60
2018-09-21T12:23:00.212Z,7.73
2018-09-21T12:25:29.385Z,8.03
2018-09-21T12:27:59.370Z,8.57
2018-09-21T12:30:28.500Z,7.83
2018-09-21T12:32:57.329Z,8.77
2018-09-21T12:35:26.209Z,8.07
2018-09-21T12:37:55.349Z,8.03
2018-09-21T12:40:24.265Z,8.20
2018-09-21T12:42:53.132Z,7.23
2018-09-21T12:45:22.219Z,7.00
2018-09-21T12:47:51.074Z,6.87
2018-09-21T12:50:20.161Z,6.60
2018-09-21T12:52:49.516Z,6.73
2018-09-21T12:55:18.961Z,6.70
2018-09-21T12:57:48.104Z,6.30
2018-09-21T13:00:17.365Z,7.33
2018-09-21T13:02:46.576Z,7.43
2018-09-21T13:05:15.722Z,6.73
2018-09-21T13:07:45.244Z,5.50
2018-09-21T13:10:14.489Z,6.23
2018-09-21T13:12:43.993Z,6.20
2018-09-21T13:15:13.189Z,6.00
2018-09-21T13:17:42.306Z,5.70
2018-09-21T13:20:11.372Z,6.17
2018-09-21T13:22:40.624Z,5.60
2018-09-21T13:25:09.797Z,6.00
2018-09-21T13:27:38.727Z,5.70
2018-09-21T13:30:08.386Z,5.73
2018-09-21T13:32:37.662Z,6.00
2018-09-21T13:35:07.363Z,6.47
2018-09-21T13:37:36.565Z,4.70
2018-09-21T13:40:05.991Z,5.50
2018-09-21T13:42:34.829Z,4.63
2018-09-21T13:45:03.997Z,5.47
2018-09-21T13:47:33.065Z,5.00
2018-09-21T13:50:02.262Z,4.07
2018-09-21T13:52:34.325Z,4.30
2018-09-21T13:55:03.149Z,4.40
2018-09-21T13:57:33.110Z,3.33
2018-09-21T14:00:02.688Z,3.30
2018-09-21T14:02:32.253Z,4.37
2018-09-21T14:05:04.311Z,3.70
2018-09-21T14:07:35.172Z,3.50
2018-09-21T14:10:04.466Z,3.83
2018-09-21T14:12:33.514Z,4.40
2018-09-21T14:15:02.515Z,3.27
2018-09-21T14:17:32.104Z,4.00
2018-09-21T14:20:01.307Z,4.90
2018-09-21T14:22:30.259Z,3.83
2018-09-21T14:24:59.508Z,4.10
2018-09-21T14:27:28.922Z,2.97
2018-09-21T14:29:58.970Z,3.30
2018-09-21T14:32:28.673Z,3.20
2018-09-21T14:34:57.565Z,3.50
2018-09-21T14:37:26.586Z,3.63
2018-09-21T14:39:55.935Z,3.40
2018-09-21T14:42:25.361Z,3.20
2018-09-21T14:44:54.363Z,3.20
2018-09-21T14:47:23.358Z,3.40
2018-09-21T14:49:52.220Z,8.50
2018-09-21T14:52:21.201Z,9.87
2018-09-21T14:54:50.132Z,5.23
2018-09-21T14:57:19.120Z,4.20
2018-09-21T14:59:50.645Z,3.80
2018-09-21T15:02:19.612Z,4.33
2018-09-21T15:04:48.402Z,5.50
2018-09-21T15:07:17.349Z,4.10
2018-09-21T15:09:46.707Z,4.30
2018-09-21T15:12:16.053Z,6.03
2018-09-21T15:14:45.001Z,5.70
2018-09-21T15:17:14.024Z,5.60
2018-09-21T15:19:43.296Z,3.77
2018-09-21T15:22:12.193Z,2.90
2018-09-21T15:24:41.044Z,4.23
2018-09-21T15:27:10.180Z,2.40
2018-09-21T15:29:39.114Z,1.80
2018-09-21T15:32:08.041Z,2.00
2018-09-21T15:34:36.830Z,1.63
2018-09-21T15:37:05.712Z,1.53
2018-09-21T15:39:34.514Z,1.70
2018-09-21T15:42:03.665Z,1.62
2018-09-21T15:44:32.875Z,1.65
2018-09-21T15:47:03.817Z,1.50
2018-09-21T15:49:33.291Z,1.90
2018-09-21T15:52:02.203Z,1.65
2018-09-21T15:54:31.261Z,1.77
2018-09-21T15:57:00.057Z,1.52
2018-09-21T15:59:28.989Z,1.82
2018-09-21T16:01:57.819Z,2.10
2018-09-21T16:04:27.618Z,1.62
2018-09-21T16:06:56.569Z,1.92
2018-09-21T16:09:25.539Z,3.00
2018-09-21T16:11:55.851Z,1.60
2018-09-21T16:14:25.749Z,1.85
2018-09-21T16:16:55.363Z,2.05
2018-09-21T16:19:24.836Z,1.82
2018-09-21T16:21:53.694Z,1.80
2018-09-21T16:24:22.606Z,1.77
2018-09-21T16:26:51.580Z,1.80
2018-09-21T16:29:20.694Z,1.80
2018-09-21T16:31:49.726Z,2.00
2018-09-21T16:34:18.532Z,2.22
2018-09-21T16:36:47.461Z,2.80
2018-09-21T16:39:16.371Z,2.12
2018-09-21T16:41:45.313Z,2.08
2018-09-21T16:44:14.057Z,1.77
2018-09-21T16:46:43.010Z,2.25
2018-09-21T16:49:12.105Z,2.10
2018-09-21T16:51:40.919Z,2.45
2018-09-21T16:54:09.752Z,2.58
2018-09-21T16:56:38.749Z,2.35
2018-09-21T16:59:37.070Z,2.40
2018-09-21T17:02:35.275Z,2.20
2018-09-21T17:05:04.253Z,2.33
2018-09-21T17:07:33.315Z,2.12
2018-09-21T17:10:02.274Z,1.90
2018-09-21T17:12:31.156Z,2.67
2018-09-21T17:15:00.361Z,1.72
2018-09-21T17:17:29.386Z,2.25
2018-09-21T17:19:58.173Z,2.35
2018-09-21T17:22:26.963Z,1.90
2018-09-21T17:24:56.165Z,2.95
2018-09-21T17:27:25.033Z,2.02
2018-09-21T17:29:54.076Z,2.17
2018-09-21T17:32:22.847Z,2.67
2018-09-21T17:34:51.928Z,2.20
2018-09-21T17:37:20.921Z,2.70
2018-09-21T17:39:49.815Z,2.50
2018-09-21T17:42:18.626Z,2.05
2018-09-21T17:44:47.654Z,3.08
2018-09-21T17:47:16.547Z,2.67
2018-09-21T17:49:45.334Z,2.75
2018-09-21T17:52:14.173Z,3.00
2018-09-21T17:54:43.346Z,2.17
2018-09-21T17:57:12.222Z,2.35
2018-09-21T17:59:41.354Z,3.22
2018-09-21T18:02:10.428Z,2.40
2018-09-21T18:04:39.398Z,3.30
2018-09-21T18:07:08.919Z,3.35
2018-09-21T18:09:38.186Z,3.65
2018-09-21T18:12:08.122Z,3.15
2018-09-21T18:14:37.172Z,3.58
2018-09-21T18:17:06.365Z,3.35
2018-09-21T18:19:35.350Z,4.58
2018-09-21T18:22:04.365Z,3.70
2018-09-21T18:24:33.452Z,4.45
2018-09-21T18:27:02.429Z,3.92
2018-09-21T18:29:31.273Z,4.30
2018-09-21T18:32:00.313Z,3.83
2018-09-21T18:34:29.302Z,3.30
2018-09-21T18:36:58.073Z,3.55
2018-09-21T18:39:27.396Z,3.30
2018-09-21T18:41:56.360Z,3.15
2018-09-21T18:44:25.648Z,3.42
2018-09-21T18:46:54.698Z,2.70
2018-09-21T18:49:23.876Z,3.20
2018-09-21T18:51:52.993Z,3.67
2018-09-21T18:54:22.513Z,3.65
2018-09-21T18:56:51.614Z,3.20
2018-09-21T18:59:20.357Z,3.42
2018-09-21T19:01:49.223Z,3.30
2018-09-21T19:04:18.363Z,3.62
2018-09-21T19:06:47.386Z,3.58
2018-09-21T19:09:16.173Z,3.60
2018-09-21T19:11:45.340Z,3.17
2018-09-21T19:14:14.602Z,3.55
2018-09-21T19:16:43.651Z,2.62
2018-09-21T19:19:12.681Z,3.30
2018-09-21T19:21:41.970Z,3.05
2018-09-21T19:24:10.934Z,3.15
2018-09-21T19:26:39.897Z,3.55
2018-09-21T19:29:09.605Z,3.37
2018-09-21T19:31:38.763Z,3.50
2018-09-21T19:34:08.043Z,2.98
2018-09-21T19:36:37.165Z,2.60
2018-09-21T19:39:09.185Z,2.55
2018-09-21T19:41:38.048Z,3.52
2018-09-21T19:44:07.073Z,3.50
2018-09-21T19:46:36.081Z,2.60
2018-09-21T19:49:04.881Z,3.20
2018-09-21T19:51:33.912Z,2.92
2018-09-21T19:54:02.849Z,2.60
2018-09-21T19:56:31.630Z,3.20
2018-09-21T19:59:00.466Z,2.62
2018-09-21T20:01:29.227Z,2.62
2018-09-21T20:04:04.934Z,2.85
2018-09-21T20:06:35.000Z,2.40
2018-09-21T20:09:05.161Z,2.95
2018-09-21T20:11:33.940Z,2.70
2018-09-21T20:14:02.900Z,2.92
2018-09-21T20:16:32.002Z,2.35
2018-09-21T20:19:00.781Z,2.62
2018-09-21T20:21:30.160Z,2.50
2018-09-21T20:23:59.414Z,2.58
2018-09-21T20:26:28.123Z,3.02
2018-09-21T20:28:57.101Z,4.85
2018-09-21T20:31:31.337Z,8.18
2018-09-21T20:34:00.329Z,10.90
2018-09-21T20:36:29.245Z,9.03
2018-09-21T20:38:58.223Z,5.75
2018-09-21T20:41:27.609Z,9.65
2018-09-21T20:43:57.058Z,9.90
2018-09-21T20:46:26.177Z,7.62
2018-09-21T20:48:55.489Z,19.27
2018-09-21T20:51:24.396Z,13.98
2018-09-21T20:53:53.306Z,11.53
2018-09-21T20:56:22.289Z,10.03
2018-09-21T20:58:51.098Z,7.05
2018-09-21T21:01:20.150Z,7.40
2018-09-21T21:03:49.378Z,4.85
2018-09-21T21:06:18.519Z,3.72
2018-09-21T21:08:47.329Z,3.92
2018-09-21T21:11:16.425Z,3.42
2018-09-21T21:13:45.669Z,2.80
2018-09-21T21:16:14.854Z,2.55
2018-09-21T21:18:43.603Z,2.87
2018-09-21T21:21:12.514Z,3.17
2018-09-21T21:23:41.522Z,2.70
2018-09-21T21:26:10.619Z,2.50
2018-09-21T21:28:39.800Z,2.40
2018-09-21T21:31:08.652Z,2.20
2018-09-21T21:33:37.795Z,2.60
2018-09-21T21:36:06.931Z,2.80
2018-09-21T21:38:35.740Z,2.65
2018-09-21T21:41:04.715Z,3.17
2018-09-21T21:43:33.702Z,2.40
2018-09-21T21:46:02.502Z,2.30
2018-09-21T21:48:31.404Z,2.90
2018-09-21T21:51:00.234Z,1.80
2018-09-21T21:53:29.179Z,1.70
2018-09-21T21:55:57.989Z,2.65
2018-09-21T21:58:26.768Z,2.80
2018-09-21T22:01:00.938Z,2.50
2018-09-21T22:03:29.914Z,2.30
2018-09-21T22:05:59.119Z,2.25
2018-09-21T22:08:27.960Z,2.02
2018-09-21T22:10:56.720Z,2.70
2018-09-21T22:13:31.252Z,2.15
2018-09-21T22:16:00.104Z,2.40
2018-09-21T22:18:28.944Z,2.02
2018-09-21T22:20:57.768Z,3.10
2018-09-21T22:23:26.938Z,2.50
2018-09-21T22:25:55.751Z,2.98
2018-09-21T22:28:24.891Z,1.80
2018-09-21T22:30:53.663Z,1.90
2018-09-21T22:33:22.454Z,2.22
2018-09-21T22:35:51.414Z,2.22
2018-09-21T22:38:20.670Z,2.30
2018-09-21T22:40:50.056Z,2.60
2018-09-21T22:43:18.997Z,2.20
2018-09-21T22:45:47.875Z,2.00
2018-09-21T22:48:16.794Z,2.35
2018-09-21T22:50:46.005Z,1.92
2018-09-21T22:53:15.020Z,2.00
2018-09-21T22:55:43.865Z,3.55
2018-09-21T22:58:12.653Z,2.70
2018-09-21T23:00:41.562Z,2.27
2018-09-21T23:03:10.279Z,2.15
2018-09-21T23:05:39.774Z,2.15
2018-09-21T23:08:08.744Z,1.87
2018-09-21T23:10:37.905Z,2.77
2018-09-21T23:13:06.921Z,2.22
2018-09-21T23:15:35.737Z,2.80
2018-09-21T23:18:04.666Z,2.10
2018-09-21T23:20:33.613Z,2.22
2018-09-21T23:23:02.446Z,2.10
2018-09-21T23:25:31.937Z,2.17
2018-09-21T23:28:01.021Z,2.25
2018-09-21T23:30:29.999Z,3.08
2018-09-21T23:32:58.732Z,2.17
2018-09-21T23:35:27.518Z,2.45
2018-09-21T23:37:56.664Z,2.10
2018-09-21T23:40:25.884Z,1.95
2018-09-21T23:42:55.614Z,2.72
2018-09-21T23:45:24.651Z,2.35
2018-09-21T23:47:53.633Z,2.45
2018-09-21T23:50:22.925Z,2.10
2018-09-21T23:52:52.081Z,2.10
2018-09-21T23:55:20.945Z,2.98
2018-09-21T23:57:50.036Z,2.15
